Time;durP1;ratioP1;P1;durP2;ratioP2;P2;SDS_P1;SDS_P2;PMS_P1;PMS_P2;Temp;Humidity;BMP_temperature;BMP_pressure;BME280_temperature;BME280_humidity;BME280_pressure;Samples;Min_cycle;Max_cycle;Signal;HPM_P1;HPM_P2
2021/05/21 00:00:18;;;;;;;;;3.00;3.00;;;;;19.93;34.53;98759.09;4998247;28;8822;-42
2021/05/21 00:02:43;;;;;;;;;2.00;2.00;;;;;20.03;33.87;98761.31;5000112;28;8827;-42
2021/05/21 00:05:09;;;;;;;;;2.00;2.00;;;;;20.18;34.93;98758.91;5003605;28;8792;-42
2021/05/21 00:07:34;;;;;;;;;1.00;1.00;;;;;20.19;35.51;98765.97;4998331;28;8874;-42
2021/05/21 00:10:00;;;;;;;;;2.25;2.25;;;;;20.13;35.91;98765.44;5005142;28;8824;-42
2021/05/21 00:12:25;;;;;;;;;2.00;2.00;;;;;19.87;35.61;98765.97;5000831;28;9641;-41
2021/05/21 00:14:51;;;;;;;;;2.00;2.00;;;;;19.70;36.02;98761.59;4997890;28;8808;-42
2021/05/21 00:17:16;;;;;;;;;1.00;1.00;;;;;19.64;36.24;98757.50;5000760;28;8813;-41
2021/05/21 00:19:41;;;;;;;;;2.00;2.00;;;;;19.74;36.19;98761.72;5001070;28;8772;-42
2021/05/21 00:22:07;;;;;;;;;2.00;2.00;;;;;19.97;34.81;98756.44;4993812;28;8827;-42
2021/05/21 00:24:32;;;;;;;;;2.00;2.00;;;;;19.78;34.35;98729.75;5000798;28;8808;-41
2021/05/21 00:26:57;;;;;;;;;2.00;2.00;;;;;20.09;34.44;98744.59;4997853;28;8854;-42
2021/05/21 00:29:23;;;;;;;;;2.00;2.00;;;;;20.18;35.14;98742.50;5003142;28;8781;-41
2021/05/21 00:31:48;;;;;;;;;1.00;1.00;;;;;20.13;35.47;98743.53;5003868;28;8810;-42
2021/05/21 00:34:13;;;;;;;;;1.50;1.50;;;;;20.00;35.88;98742.84;5001931;28;8840;-42
2021/05/21 00:36:38;;;;;;;;;2.00;2.00;;;;;19.70;35.84;98739.72;5006508;28;8820;-41
2021/05/21 00:39:04;;;;;;;;;2.50;2.50;;;;;19.56;36.23;98733.84;5001999;28;8882;-42
2021/05/21 00:41:30;;;;;;;;;1.00;1.00;;;;;19.26;36.52;98685.81;5001324;28;8800;-42
2021/05/21 00:43:56;;;;;;;;;3.00;3.00;;;;;19.86;35.20;98734.28;5005081;28;8792;-42
2021/05/21 00:46:22;;;;;;;;;1.60;1.60;;;;;19.82;34.80;98708.75;5003413;28;8836;-42
2021/05/21 00:48:47;;;;;;;;;2.00;2.00;;;;;20.03;33.91;98728.47;5007589;28;8890;-42
2021/05/21 00:51:13;;;;;;;;;1.50;1.50;;;;;20.20;34.74;98729.22;4995225;28;9488;-41
2021/05/21 00:53:39;;;;;;;;;1.00;1.00;;;;;20.19;35.20;98722.97;5002693;28;8847;-41
2021/05/21 00:56:05;;;;;;;;;1.00;1.00;;;;;19.64;35.93;98657.06;5000577;28;8856;-42
2021/05/21 00:58:30;;;;;;;;;1.75;1.75;;;;;19.73;35.61;98714.34;5003416;28;8922;-41
2021/05/21 01:00:56;;;;;;;;;1.25;1.25;;;;;19.51;36.16;98704.81;4999141;28;11651;-41
2021/05/21 01:03:23;;;;;;;;;2.00;2.00;;;;;19.55;36.37;98733.06;5001919;28;8809;-41
2021/05/21 01:05:48;;;;;;;;;2.00;2.00;;;;;19.60;36.67;98719.13;5003745;28;9554;-41
2021/05/21 01:08:15;;;;;;;;;2.00;2.00;;;;;19.90;34.74;98713.25;5000796;28;8816;-41
2021/05/21 01:10:41;;;;;;;;;1.00;1.00;;;;;19.93;34.24;98703.53;5004415;28;8764;-41
2021/05/21 01:13:06;;;;;;;;;1.40;1.40;;;;;20.08;34.30;98704.69;5005019;28;8942;-41
2021/05/21 01:15:40;;;;;;;;;2.50;2.50;;;;;20.02;35.13;98704.19;4998493;28;8804;-41
2021/05/21 01:18:08;;;;;;;;;2.00;2.00;;;;;20.09;35.50;98711.75;5001411;28;8807;-41
2021/05/21 01:20:34;;;;;;;;;1.00;1.00;;;;;19.86;35.67;98713.16;5003144;28;8914;-41
2021/05/21 01:23:00;;;;;;;;;2.00;2.00;;;;;19.63;35.92;98704.75;5001921;28;8843;-41
2021/05/21 01:25:26;;;;;;;;;2.00;2.00;;;;;19.57;35.99;98710.81;5003519;28;8844;-41
2021/05/21 01:27:54;;;;;;;;;2.00;2.00;;;;;19.54;36.36;98706.84;5004714;28;8816;-41
2021/05/21 01:30:20;;;;;;;;;2.00;2.00;;;;;19.76;35.74;98705.47;4985687;28;8889;-41
2021/05/21 01:32:46;;;;;;;;;2.00;2.00;;;;;19.93;34.51;98698.06;4996168;28;8997;-41
2021/05/21 01:35:14;;;;;;;;;2.00;2.00;;;;;19.98;34.05;98693.13;5004337;28;8791;-41
2021/05/21 01:37:44;;;;;;;;;1.00;1.00;;;;;20.13;34.63;98696.22;5004307;28;8777;-41
2021/05/21 01:40:12;;;;;;;;;2.00;2.00;;;;;20.09;35.25;98696.13;5005113;28;8845;-41
2021/05/21 01:42:39;;;;;;;;;2.00;2.00;;;;;20.02;35.90;98696.75;4983833;28;8795;-41
2021/05/21 01:45:07;;;;;;;;;1.00;1.00;;;;;19.79;35.54;98704.00;4984608;28;8857;-43
2021/05/21 01:47:32;;;;;;;;;2.00;2.00;;;;;19.76;35.74;98702.75;4984105;28;8795;-44
2021/05/21 01:49:57;;;;;;;;;2.00;2.00;;;;;19.55;36.07;98702.97;4984425;28;8833;-44
2021/05/21 01:52:23;;;;;;;;;1.50;1.50;;;;;19.47;36.69;98692.97;4985323;28;8799;-43
2021/05/21 01:54:48;;;;;;;;;2.00;2.00;;;;;19.96;34.64;98692.69;5006268;28;8868;-44
2021/05/21 01:57:14;;;;;;;;;1.75;1.75;;;;;19.66;33.89;98626.63;5000221;28;8956;-44
2021/05/21 01:59:39;;;;;;;;;2.00;2.00;;;;;20.15;33.93;98693.91;4998760;28;8777;-44
2021/05/21 02:02:09;;;;;;;;;2.00;2.00;;;;;20.12;34.82;98675.44;4989086;28;8832;-43
2021/05/21 02:04:42;;;;;;;;;1.00;1.00;;;;;20.08;35.46;98677.31;4989503;28;8773;-43
2021/05/21 02:07:13;;;;;;;;;2.00;2.00;;;;;19.16;35.75;98585.16;4978674;28;8900;-44
2021/05/21 02:09:44;;;;;;;;;2.40;2.40;;;;;19.74;35.70;98674.16;4998169;28;8824;-43
2021/05/21 02:12:10;;;;;;;;;2.00;2.00;;;;;19.63;35.96;98680.13;4993540;28;8814;-44
2021/05/21 02:14:35;;;;;;;;;1.00;1.00;;;;;19.57;36.11;98676.03;4993980;28;8804;-44
2021/05/21 02:17:01;;;;;;;;;2.00;2.00;;;;;19.61;36.47;98676.13;4994220;28;9602;-44
2021/05/21 02:19:26;;;;;;;;;2.00;2.00;;;;;19.88;34.66;98685.47;4995349;28;8806;-43
2021/05/21 02:21:51;;;;;;;;;3.00;3.00;;;;;19.90;34.17;98676.91;4996587;28;8827;-43
2021/05/21 02:24:17;;;;;;;;;1.50;1.50;;;;;20.22;34.24;98672.16;4996479;28;10663;-43
2021/05/21 02:26:42;;;;;;;;;1.25;1.25;;;;;20.16;35.02;98668.91;4994196;28;8812;-43
2021/05/21 02:29:09;;;;;;;;;2.00;2.00;;;;;20.11;35.54;98671.16;4993646;28;8876;-43
2021/05/21 02:31:34;;;;;;;;;2.00;2.00;;;;;19.85;35.38;98667.00;4992398;28;8788;-43
2021/05/21 02:34:00;;;;;;;;;2.00;2.00;;;;;19.63;35.91;98668.38;4995244;28;8836;-43
2021/05/21 02:36:25;;;;;;;;;2.00;2.00;;;;;19.47;36.16;98655.50;4993195;28;11487;-43
2021/05/21 02:38:50;;;;;;;;;1.75;1.75;;;;;19.55;36.08;98651.00;4994771;28;8788;-43
2021/05/21 02:41:16;;;;;;;;;2.00;2.00;;;;;19.53;36.24;98658.75;4994960;28;8776;-43
2021/05/21 02:43:41;;;;;;;;;2.50;2.50;;;;;19.85;34.72;98647.84;4995077;28;8748;-44
2021/05/21 02:46:06;;;;;;;;;2.25;2.00;;;;;19.90;34.23;98653.06;4992238;28;8780;-41
2021/05/21 02:48:31;;;;;;;;;2.00;2.00;;;;;20.02;34.09;98647.47;4995288;28;8792;-41
2021/05/21 02:50:57;;;;;;;;;1.00;1.00;;;;;20.04;35.15;98636.19;4997933;28;8778;-41
2021/05/21 02:53:22;;;;;;;;;2.00;2.00;;;;;20.05;35.50;98646.78;5001075;28;8824;-42
2021/05/21 02:55:47;;;;;;;;;2.00;2.00;;;;;19.94;35.54;98639.44;5001571;28;9517;-41
2021/05/21 02:58:13;;;;;;;;;2.00;2.00;;;;;19.65;35.68;98636.00;5003211;28;8835;-41
2021/05/21 03:00:38;;;;;;;;;2.00;2.00;;;;;19.49;36.15;98636.00;5003057;28;8906;-41
2021/05/21 03:03:03;;;;;;;;;2.00;2.00;;;;;19.42;36.27;98644.81;5002058;28;8828;-41
2021/05/21 03:05:29;;;;;;;;;1.50;1.50;;;;;19.41;36.38;98636.97;5002844;28;8792;-41
2021/05/21 03:07:56;;;;;;;;;2.00;2.00;;;;;19.61;35.48;98624.97;4994158;28;8804;-41
2021/05/21 03:10:22;;;;;;;;;2.20;2.20;;;;;19.73;34.84;98624.06;4984858;28;8921;-41
2021/05/21 03:12:48;;;;;;;;;2.00;2.00;;;;;19.84;34.12;98621.63;5002652;28;8954;-41
2021/05/21 03:15:14;;;;;;;;;2.00;2.00;;;;;19.97;35.02;98620.38;5001718;28;8921;-41
2021/05/21 03:17:39;;;;;;;;;2.00;2.00;;;;;19.94;35.42;98621.06;5003562;28;8760;-41
2021/05/21 03:20:06;;;;;;;;;2.00;2.00;;;;;20.00;35.81;98621.63;4997334;28;8831;-41
2021/05/21 03:22:31;;;;;;;;;2.00;2.00;;;;;19.68;35.49;98622.41;4990951;28;8935;-41
2021/05/21 03:25:01;;;;;;;;;3.00;3.00;;;;;19.59;36.06;98618.25;4995088;28;9532;-41
2021/05/21 03:27:26;;;;;;;;;3.00;2.60;;;;;19.49;36.01;98617.66;4990688;28;8788;-41
2021/05/21 03:29:52;;;;;;;;;2.75;2.75;;;;;19.48;36.26;98618.78;4995514;28;8923;-41
2021/05/21 03:32:17;;;;;;;;;3.00;3.00;;;;;19.66;35.62;98613.78;4996021;28;8814;-40
2021/05/21 03:34:42;;;;;;;;;2.00;2.00;;;;;19.92;34.32;98606.97;4992489;28;8807;-41
2021/05/21 03:37:08;;;;;;;;;1.75;1.75;;;;;19.99;33.77;98609.88;4997853;28;8861;-41
2021/05/21 03:39:33;;;;;;;;;2.50;2.50;;;;;20.02;34.72;98602.91;4990590;28;8815;-42
2021/05/21 03:41:59;;;;;;;;;2.00;2.00;;;;;20.07;35.10;98607.28;4991716;28;8785;-41
2021/05/21 03:44:24;;;;;;;;;3.75;3.00;;;;;19.99;35.78;98601.66;4992935;28;8773;-41
2021/05/21 03:46:50;;;;;;;;;1.50;1.50;;;;;19.76;35.44;98596.03;4987594;28;8811;-41
2021/05/21 03:49:16;;;;;;;;;2.00;2.00;;;;;19.62;35.73;98596.47;4973497;28;9633;-41
2021/05/21 03:51:42;;;;;;;;;2.00;2.00;;;;;19.56;36.06;98592.41;4996685;28;8834;-41
2021/05/21 03:54:08;;;;;;;;;2.00;2.00;;;;;19.52;36.07;98591.53;4996961;28;8856;-40
2021/05/21 03:56:33;;;;;;;;;2.00;2.00;;;;;19.51;36.64;98583.66;4996441;28;8841;-41
2021/05/21 03:58:59;;;;;;;;;2.00;2.00;;;;;19.77;34.45;98583.16;4998179;28;8788;-41
2021/05/21 04:01:25;;;;;;;;;2.00;2.00;;;;;19.67;34.12;98566.09;4994960;28;9343;-41
2021/05/21 04:03:51;;;;;;;;;3.00;2.40;;;;;19.97;34.58;98579.31;5000724;28;8832;-41
2021/05/21 04:06:16;;;;;;;;;2.80;2.80;;;;;20.04;35.08;98563.06;4997980;28;11236;-41
2021/05/21 04:08:42;;;;;;;;;2.00;2.00;;;;;19.91;35.88;98560.78;4996122;28;8784;-41
2021/05/21 04:11:08;;;;;;;;;2.00;2.00;;;;;19.73;35.66;98558.41;4997152;28;8838;-41
2021/05/21 04:13:33;;;;;;;;;2.00;2.00;;;;;19.53;35.84;98563.03;4998494;28;8800;-43
2021/05/21 04:15:58;;;;;;;;;2.00;2.00;;;;;19.48;35.97;98553.16;4998508;28;8838;-43
2021/05/21 04:18:24;;;;;;;;;2.75;2.75;;;;;19.44;36.05;98557.75;4992739;28;9598;-43
2021/05/21 04:20:49;;;;;;;;;2.75;2.75;;;;;19.54;36.57;98559.16;4995779;28;9559;-43
2021/05/21 04:23:14;;;;;;;;;2.50;2.00;;;;;19.83;34.59;98562.59;4994656;28;8804;-43
2021/05/21 04:25:40;;;;;;;;;2.00;2.00;;;;;19.84;34.08;98548.56;4997738;28;9041;-44
2021/05/21 04:28:05;;;;;;;;;1.00;1.00;;;;;19.95;34.36;98548.78;4996588;28;8804;-43
2021/05/21 04:30:30;;;;;;;;;2.50;2.50;;;;;19.93;35.06;98529.19;4994821;28;8929;-43
2021/05/21 04:32:56;;;;;;;;;2.00;2.00;;;;;19.97;35.71;98549.22;4994329;28;8789;-43
2021/05/21 04:35:22;;;;;;;;;2.00;2.00;;;;;19.82;35.55;98541.84;4994382;28;8847;-43
2021/05/21 04:37:47;;;;;;;;;2.00;2.00;;;;;19.63;36.13;98551.56;4992650;28;8839;-44
2021/05/21 04:40:14;;;;;;;;;2.00;2.00;;;;;19.35;35.88;98510.66;4998637;28;8800;-43
2021/05/21 04:42:40;;;;;;;;;2.00;2.00;;;;;19.38;36.07;98525.53;4995569;28;9616;-40
2021/05/21 04:45:07;;;;;;;;;2.25;2.00;;;;;19.59;36.34;98542.47;4998819;28;8808;-41
2021/05/21 04:47:33;;;;;;;;;2.00;2.00;;;;;17.16;34.50;98123.78;5000319;28;8788;-41
2021/05/21 04:49:58;;;;;;;;;3.00;3.00;;;;;19.88;33.99;98537.69;4985840;28;8952;-41
2021/05/21 04:52:24;;;;;;;;;2.25;2.25;;;;;20.05;34.53;98541.94;4973700;28;9768;-41
2021/05/21 04:54:49;;;;;;;;;2.00;2.00;;;;;20.03;35.27;98542.31;4977575;28;8865;-41
2021/05/21 04:57:14;;;;;;;;;2.00;2.00;;;;;19.97;35.70;98530.06;4993235;28;8811;-41
2021/05/21 04:59:39;;;;;;;;;2.00;2.00;;;;;19.84;35.43;98542.25;4993483;28;8818;-41
2021/05/21 05:02:05;;;;;;;;;2.00;2.00;;;;;19.61;35.95;98531.16;4988072;28;8845;-41
2021/05/21 05:04:31;;;;;;;;;2.00;2.00;;;;;19.40;36.05;98517.78;4978081;28;9615;-41
2021/05/21 05:06:57;;;;;;;;;2.00;2.00;;;;;19.42;35.91;98518.25;4975201;28;8815;-40
2021/05/21 05:09:22;;;;;;;;;2.00;2.00;;;;;19.58;36.49;98534.63;4990636;28;9598;-41
2021/05/21 05:11:48;;;;;;;;;2.00;2.00;;;;;19.80;34.63;98535.94;4990276;28;9665;-41
2021/05/21 05:14:13;;;;;;;;;2.25;2.00;;;;;19.96;33.75;98527.69;4994304;28;9599;-41
2021/05/21 05:16:40;;;;;;;;;2.00;2.00;;;;;19.92;34.39;98515.88;4992794;28;8820;-41
2021/05/21 05:19:06;;;;;;;;;2.00;2.00;;;;;19.97;35.16;98543.75;4998570;28;8834;-41
2021/05/21 05:21:33;;;;;;;;;2.00;2.00;;;;;19.80;35.80;98516.78;4994916;28;8788;-41
2021/05/21 05:24:00;;;;;;;;;2.20;2.20;;;;;19.75;35.67;98538.94;4991293;28;8820;-41
2021/05/21 05:26:25;;;;;;;;;2.00;2.00;;;;;19.57;35.94;98531.09;4990682;28;8785;-40
2021/05/21 05:28:50;;;;;;;;;2.00;2.00;;;;;19.54;35.90;98529.06;4995968;28;8863;-41
2021/05/21 05:31:16;;;;;;;;;2.00;2.00;;;;;19.29;36.02;98491.00;4993855;28;8804;-40
2021/05/21 05:33:42;;;;;;;;;1.00;1.00;;;;;19.50;36.52;98528.19;4993400;28;8855;-41
2021/05/21 05:36:08;;;;;;;;;2.00;2.00;;;;;19.74;34.73;98531.91;4996473;28;8822;-41
2021/05/21 05:38:33;;;;;;;;;1.40;1.40;;;;;19.83;33.88;98530.53;4990180;28;11532;-41
2021/05/21 05:40:59;;;;;;;;;1.80;1.80;;;;;19.97;34.58;98530.06;4989367;28;8787;-41
2021/05/21 05:43:24;;;;;;;;;2.75;2.75;;;;;19.95;35.20;98526.91;4988571;28;8879;-41
2021/05/21 05:45:50;;;;;;;;;2.00;2.00;;;;;19.90;35.80;98529.91;4973696;28;9513;-42
2021/05/21 05:48:18;;;;;;;;;1.00;1.00;;;;;19.71;35.89;98527.88;4991064;28;8854;-41
2021/05/21 05:50:44;;;;;;;;;1.60;1.60;;;;;19.59;35.95;98519.78;4993490;28;8812;-41
2021/05/21 05:53:10;;;;;;;;;2.00;2.00;;;;;19.57;35.90;98525.63;4990889;28;9598;-41
2021/05/21 05:55:35;;;;;;;;;2.00;2.00;;;;;19.55;36.12;98525.19;4992425;28;8772;-40
2021/05/21 05:58:00;;;;;;;;;1.25;1.25;;;;;19.63;36.08;98524.19;4993004;28;9885;-41
2021/05/21 06:00:26;;;;;;;;;2.00;2.00;;;;;19.84;34.58;98525.84;4990840;28;8819;-41
2021/05/21 06:02:51;;;;;;;;;2.00;2.00;;;;;19.90;33.68;98524.44;4989082;28;8894;-41
2021/05/21 06:05:16;;;;;;;;;1.00;1.00;;;;;19.99;34.92;98527.75;4993480;28;8795;-41
2021/05/21 06:07:41;;;;;;;;;1.00;1.00;;;;;19.97;35.21;98530.06;4987507;28;8825;-41
2021/05/21 06:10:07;;;;;;;;;2.00;2.00;;;;;19.89;35.83;98522.84;4996506;28;8788;-41
2021/05/21 06:12:33;;;;;;;;;1.00;1.00;;;;;19.61;35.63;98517.50;4988620;28;8777;-41
2021/05/21 06:14:58;;;;;;;;;2.00;2.00;;;;;19.47;36.38;98534.34;4990323;28;9729;-40
2021/05/21 06:17:24;;;;;;;;;2.75;2.75;;;;;19.46;36.70;98527.31;4992075;28;8830;-41
2021/05/21 06:19:49;;;;;;;;;2.00;1.50;;;;;19.46;36.51;98522.63;4989698;28;8821;-41
2021/05/21 06:22:14;;;;;;;;;1.00;1.00;;;;;19.46;36.95;98521.84;4974207;28;8835;-40
2021/05/21 06:24:43;;;;;;;;;3.00;3.00;;;;;19.75;34.92;98528.00;4991445;28;8829;-40
2021/05/21 06:27:24;;;;;;;;;1.40;1.40;;;;;19.71;35.39;98518.88;4988978;28;8803;-39
2021/05/21 06:29:50;;;;;;;;;2.80;2.80;;;;;19.94;34.67;98519.81;4976462;28;8801;-41
2021/05/21 06:32:16;;;;;;;;;2.00;2.00;;;;;19.99;35.35;98527.75;4981089;28;8807;-41
2021/05/21 06:34:41;;;;;;;;;2.00;2.00;;;;;19.96;35.63;98528.47;4992922;28;8817;-41
2021/05/21 06:37:07;;;;;;;;;2.20;2.20;;;;;19.69;35.88;98513.78;4992168;28;9833;-41
2021/05/21 06:39:32;;;;;;;;;1.75;1.75;;;;;19.04;36.02;98448.59;4970105;28;8830;-40
2021/05/21 06:41:58;;;;;;;;;2.00;2.00;;;;;19.42;36.14;98526.44;4986404;28;8792;-41
2021/05/21 06:44:23;;;;;;;;;2.00;2.00;;;;;19.39;36.39;98535.34;4988735;28;8795;-41
2021/05/21 06:46:48;;;;;;;;;2.00;2.00;;;;;19.48;36.53;98530.47;4993310;28;8897;-41
2021/05/21 06:49:14;;;;;;;;;2.00;2.00;;;;;19.74;34.78;98534.63;4999319;28;8827;-40
2021/05/21 06:51:41;;;;;;;;;2.60;2.60;;;;;19.81;34.13;98537.53;4994772;28;8854;-41
2021/05/21 06:54:07;;;;;;;;;2.00;2.00;;;;;20.05;34.43;98536.47;4988619;28;8827;-40
2021/05/21 06:56:35;;;;;;;;;1.60;1.60;;;;;20.09;35.03;98531.88;4986950;28;8822;-40
2021/05/21 06:59:00;;;;;;;;;2.00;2.00;;;;;20.03;35.40;98533.31;4992954;28;8795;-41
2021/05/21 07:01:26;;;;;;;;;1.25;1.25;;;;;19.80;35.75;98531.25;4990576;28;8796;-41
2021/05/21 07:03:51;;;;;;;;;2.00;2.00;;;;;19.78;35.54;98532.75;4973929;28;8842;-40
2021/05/21 07:06:17;;;;;;;;;1.00;1.00;;;;;19.61;35.92;98531.97;4989585;28;8795;-40
2021/05/21 07:08:42;;;;;;;;;1.50;1.50;;;;;19.50;36.10;98528.19;4987093;28;8810;-40
2021/05/21 07:11:07;;;;;;;;;1.50;1.50;;;;;19.45;36.33;98522.97;4989962;28;8799;-40
2021/05/21 07:13:33;;;;;;;;;2.00;2.00;;;;;19.62;35.10;98519.88;4991166;28;8832;-41
2021/05/21 07:15:58;;;;;;;;;1.00;1.00;;;;;19.75;35.14;98519.78;4990781;28;8836;-41
2021/05/21 07:18:26;;;;;;;;;2.00;2.00;;;;;19.87;34.08;98508.72;4972740;28;8823;-40
2021/05/21 07:20:51;;;;;;;;;2.00;2.00;;;;;19.92;35.10;98510.41;4984698;28;8789;-40
2021/05/21 07:23:17;;;;;;;;;2.00;2.00;;;;;19.90;35.65;98518.19;4988703;28;8827;-43
2021/05/21 07:25:42;;;;;;;;;2.00;2.00;;;;;19.86;35.83;98512.63;4991811;28;8898;-42
2021/05/21 07:28:08;;;;;;;;;2.80;2.00;;;;;19.55;35.91;98510.72;4991055;28;8795;-43
2021/05/21 07:30:33;;;;;;;;;2.00;2.00;;;;;19.43;36.12;98517.06;4993598;28;8808;-43
2021/05/21 07:32:58;;;;;;;;;1.75;1.75;;;;;19.37;36.39;98513.03;4994273;28;9650;-42
2021/05/21 07:35:24;;;;;;;;;1.00;1.00;;;;;19.34;36.50;98508.28;4984399;28;8811;-43
2021/05/21 07:37:50;;;;;;;;;2.00;2.00;;;;;19.45;36.33;98507.38;4979564;28;8815;-43
2021/05/21 07:40:18;;;;;;;;;1.00;1.00;;;;;19.68;34.81;98504.78;4994963;28;8811;-42
2021/05/21 07:42:43;;;;;;;;;2.00;2.00;;;;;19.59;34.15;98481.50;4997434;28;8882;-42
2021/05/21 07:45:10;;;;;;;;;1.50;1.50;;;;;19.88;35.00;98501.31;4993446;28;8838;-42
2021/05/21 07:47:35;;;;;;;;;1.80;1.80;;;;;19.90;35.43;98497.06;4994010;28;9567;-43
2021/05/21 07:50:01;;;;;;;;;1.00;1.00;;;;;19.86;35.99;98505.19;4995441;28;8795;-43
2021/05/21 07:52:27;;;;;;;;;1.25;1.25;;;;;19.61;36.01;98501.88;4994976;28;8862;-43
2021/05/21 07:54:52;;;;;;;;;2.00;1.00;;;;;19.44;36.14;98503.06;4996132;28;9009;-43
2021/05/21 07:57:17;;;;;;;;;2.00;2.00;;;;;19.31;36.43;98490.63;4993314;28;9845;-42
2021/05/21 07:59:43;;;;;;;;;2.00;2.00;;;;;19.34;36.39;98491.88;4994115;28;8869;-43
2021/05/21 08:02:08;;;;;;;;;1.00;1.00;;;;;19.33;36.91;98501.19;4994972;28;9473;-43
2021/05/21 08:04:34;;;;;;;;;2.00;2.00;;;;;19.56;34.82;98480.28;4995682;28;8833;-43
2021/05/21 08:06:59;;;;;;;;;2.00;2.00;;;;;19.72;34.30;98493.09;4995250;28;9542;-42
2021/05/21 08:09:24;;;;;;;;;1.00;1.00;;;;;19.87;34.41;98486.81;4993486;28;9558;-42
2021/05/21 08:11:50;;;;;;;;;1.25;1.25;;;;;19.90;35.20;98472.44;4993018;28;8804;-43
2021/05/21 08:14:15;;;;;;;;;2.00;2.00;;;;;19.85;35.82;98478.97;4996443;28;9544;-43
2021/05/21 08:16:41;;;;;;;;;1.75;1.50;;;;;19.72;36.18;98474.78;4992594;28;8797;-43
2021/05/21 08:19:06;;;;;;;;;1.80;1.80;;;;;19.48;36.09;98487.50;4994908;28;9586;-43
2021/05/21 08:21:33;;;;;;;;;1.00;1.00;;;;;19.24;36.29;98472.13;4993237;28;8886;-43
2021/05/21 08:23:58;;;;;;;;;1.00;1.00;;;;;19.29;36.44;98480.06;4994453;28;8808;-43
2021/05/21 08:26:26;;;;;;;;;2.00;2.00;;;;;19.26;36.53;98469.00;4993028;28;8768;-41
2021/05/21 08:28:56;;;;;;;;;2.00;2.00;;;;;19.56;35.52;98483.00;4985497;28;8954;-41
2021/05/21 08:31:23;;;;;;;;;2.00;2.00;;;;;19.68;34.71;98479.34;4977612;28;9494;-41
2021/05/21 08:33:49;;;;;;;;;1.60;1.60;;;;;19.81;34.28;98482.81;4993948;28;8849;-41
2021/05/21 08:36:15;;;;;;;;;1.60;1.60;;;;;19.90;35.19;98483.38;4991544;28;8788;-41
2021/05/21 08:38:44;;;;;;;;;2.00;2.00;;;;;19.85;35.83;98478.97;4994345;28;8799;-41
2021/05/21 08:41:16;;;;;;;;;1.00;1.00;;;;;19.78;36.29;98472.56;4992491;28;8828;-42
2021/05/21 08:43:46;;;;;;;;;1.00;1.00;;;;;19.51;36.18;98475.09;4987251;28;8798;-42
2021/05/21 08:46:12;;;;;;;;;2.00;2.00;;;;;19.37;36.25;98459.13;4970407;28;8803;-40
2021/05/21 08:48:37;;;;;;;;;2.00;2.00;;;;;19.26;36.44;98447.97;4993851;28;8816;-41
2021/05/21 08:51:03;;;;;;;;;1.00;1.00;;;;;19.16;36.61;98437.56;4992311;28;8845;-41
2021/05/21 08:53:28;;;;;;;;;2.00;2.00;;;;;19.51;35.84;98460.59;4994801;28;8816;-41
2021/05/21 08:55:54;;;;;;;;;2.00;2.00;;;;;19.69;35.02;98456.31;4989418;28;8861;-41
2021/05/21 08:58:19;;;;;;;;;2.00;2.00;;;;;19.78;34.57;98454.19;4974487;28;8953;-41
2021/05/21 09:00:44;;;;;;;;;2.00;2.00;;;;;19.88;35.26;98458.31;4992737;28;8790;-41
2021/05/21 09:03:21;;;;;;;;;1.50;1.00;;;;;19.90;35.70;98456.03;4990772;28;8846;-41
2021/05/21 09:06:21;;;;;;;;;1.80;1.80;;;;;20.02;35.80;98455.09;4991898;28;8915;-42
2021/05/21 09:08:57;;;;;;;;;1.00;1.00;;;;;19.81;35.81;98472.66;4991343;28;8777;-41
2021/05/21 09:11:25;;;;;;;;;2.00;2.00;;;;;19.67;35.82;98451.22;4990575;28;8780;-41
2021/05/21 09:13:52;;;;;;;;;1.80;1.80;;;;;19.56;36.14;98444.72;4991546;28;8861;-41
2021/05/21 09:16:22;;;;;;;;;1.60;1.60;;;;;19.55;36.29;98445.88;4991113;28;8780;-41
2021/05/21 09:19:16;;;;;;;;;1.20;1.20;;;;;19.83;34.81;98439.47;4993893;28;8826;-42
2021/05/21 09:21:50;;;;;;;;;1.80;1.80;;;;;19.89;34.06;98435.25;4971415;28;8837;-41
2021/05/21 09:24:18;;;;;;;;;1.00;1.00;;;;;20.02;34.58;98428.50;4989405;28;8839;-42
2021/05/21 09:26:46;;;;;;;;;1.00;1.00;;;;;20.03;35.20;98430.09;4990807;28;8785;-40
2021/05/21 09:29:14;;;;;;;;;1.20;1.20;;;;;19.92;35.81;98423.59;4991063;28;9006;-41
2021/05/21 09:31:47;;;;;;;;;1.00;1.00;;;;;19.74;35.71;98417.00;4992752;28;8835;-42
2021/05/21 09:34:22;;;;;;;;;2.20;2.20;;;;;19.56;36.05;98428.31;4988342;28;8824;-41
2021/05/21 09:36:52;;;;;;;;;1.20;1.20;;;;;19.49;36.24;98422.69;4995713;28;8808;-41
2021/05/21 09:39:17;;;;;;;;;1.80;1.80;;;;;19.45;36.41;98417.16;4991056;28;8854;-41
2021/05/21 09:41:46;;;;;;;;;1.75;1.75;;;;;19.45;36.44;98416.34;4992174;28;8801;-41
2021/05/21 09:44:11;;;;;;;;;1.40;1.40;;;;;19.66;34.95;98389.47;4983543;28;8939;-41
2021/05/21 09:46:39;;;;;;;;;2.00;2.00;;;;;19.85;34.40;98412.53;4975264;28;8784;-41
2021/05/21 09:49:34;;;;;;;;;2.00;2.00;;;;;20.06;34.57;98406.69;4992521;28;8872;-41
2021/05/21 09:52:03;;;;;;;;;1.00;1.00;;;;;20.04;35.21;98407.03;4991331;28;8832;-40
2021/05/21 09:54:47;;;;;;;;;1.00;1.00;;;;;19.97;35.82;98408.84;4993334;28;8816;-41
2021/05/21 09:57:13;;;;;;;;;1.60;1.60;;;;;19.77;35.72;98405.31;4991702;28;8951;-41
2021/05/21 09:59:39;;;;;;;;;1.00;1.00;;;;;19.60;35.88;98399.09;4996811;28;8784;-41
2021/05/21 10:02:20;;;;;;;;;1.20;1.20;;;;;19.49;36.10;98395.34;4984697;28;8955;-41
2021/05/21 10:04:46;;;;;;;;;1.00;1.00;;;;;19.45;36.31;98394.47;4975262;28;8803;-41
2021/05/21 10:07:13;;;;;;;;;2.00;2.00;;;;;19.43;36.32;98394.03;4971633;28;8829;-41
2021/05/21 10:09:39;;;;;;;;;2.00;2.00;;;;;19.72;34.99;98394.63;4971307;28;9613;-41
2021/05/21 10:12:06;;;;;;;;;1.00;1.00;;;;;19.90;33.92;98390.34;4988064;28;8808;-41
2021/05/21 10:14:32;;;;;;;;;1.00;1.00;;;;;20.05;33.94;98385.94;4992041;28;8784;-41
2021/05/21 10:16:58;;;;;;;;;1.00;1.00;;;;;20.10;34.96;98380.16;4993800;28;8824;-41
2021/05/21 10:19:26;;;;;;;;;1.00;1.00;;;;;20.05;35.46;98378.53;4991690;28;8929;-41
2021/05/21 10:21:52;;;;;;;;;1.00;1.00;;;;;19.96;35.71;98380.66;4990432;28;8905;-41
2021/05/21 10:24:20;;;;;;;;;1.00;1.00;;;;;19.58;35.75;98357.63;4991223;28;8787;-41
2021/05/21 10:26:51;;;;;;;;;1.00;1.00;;;;;19.49;36.11;98368.78;4990537;28;8898;-41
2021/05/21 10:29:23;;;;;;;;;1.60;1.60;;;;;19.45;36.21;98364.38;4995527;28;8796;-42
2021/05/21 10:32:09;;;;;;;;;1.80;1.80;;;;;19.43;36.34;98366.69;4990671;28;9446;-41
2021/05/21 10:34:40;;;;;;;;;1.00;1.00;;;;;19.40;36.27;98365.47;4989020;28;8770;-42
2021/05/21 10:37:19;;;;;;;;;2.00;2.00;;;;;19.38;36.27;98372.44;4976060;28;8833;-41
2021/05/21 10:40:02;;;;;;;;;1.00;1.00;;;;;19.39;36.57;98363.88;4993116;28;8800;-41
2021/05/21 10:42:28;;;;;;;;;1.00;1.00;;;;;19.35;36.56;98352.06;4990274;28;8779;-41
2021/05/21 10:45:05;;;;;;;;;1.00;1.00;;;;;19.35;36.55;98356.72;4993117;28;8818;-41
2021/05/21 10:47:35;;;;;;;;;1.80;1.80;;;;;19.35;36.48;98354.81;4993143;28;9864;-42
2021/05/21 10:50:01;;;;;;;;;1.00;1.00;;;;;19.34;36.54;98355.16;4992591;28;8804;-41
2021/05/21 10:53:13;;;;;;;;;1.00;1.00;;;;;19.46;36.42;98346.84;4990146;28;8906;-41
2021/05/21 10:55:39;;;;;;;;;1.00;1.00;;;;;19.19;36.15;98297.47;4988274;28;8781;-42
2021/05/21 10:58:05;;;;;;;;;2.00;2.00;;;;;19.44;36.47;98349.91;4992267;28;8788;-41
2021/05/21 11:00:31;;;;;;;;;1.00;1.00;;;;;19.36;36.54;98347.38;4974592;28;8920;-41
2021/05/21 11:02:57;;;;;;;;;1.60;1.60;;;;;19.31;36.50;98345.72;4984042;28;8913;-41
2021/05/21 11:05:25;;;;;;;;;1.00;1.00;;;;;18.89;36.87;98280.78;4990783;28;8800;-41
2021/05/21 11:08:01;;;;;;;;;1.00;1.00;;;;;19.29;36.70;98345.28;4984143;28;8777;-41
2021/05/21 11:10:32;;;;;;;;;1.60;1.60;;;;;19.29;36.78;98345.28;4981257;28;8815;-41
2021/05/21 11:13:07;;;;;;;;;1.00;1.00;;;;;19.30;36.78;98344.16;4996553;28;8781;-41
2021/05/21 11:15:32;;;;;;;;;1.00;1.00;;;;;19.26;36.80;98344.06;5001920;28;8816;-41
2021/05/21 11:18:16;;;;;;;;;1.00;1.00;;;;;19.26;36.81;98343.25;5000918;28;8812;-41
2021/05/21 11:21:07;;;;;;;;;1.00;1.00;;;;;19.26;36.83;98340.53;4987716;28;8799;-41
2021/05/21 11:23:44;;;;;;;;;1.40;1.40;;;;;19.27;36.72;98342.13;4983683;28;8780;-41
2021/05/21 11:26:13;;;;;;;;;1.00;1.00;;;;;19.38;36.80;98339.63;4991695;28;8869;-42
2021/05/21 11:28:42;;;;;;;;;1.00;1.00;;;;;19.46;36.45;98335.88;4983953;28;8764;-42
2021/05/21 11:31:08;;;;;;;;;1.00;1.00;;;;;19.36;36.55;98328.25;5006267;28;8919;-41
2021/05/21 11:33:33;;;;;;;;;1.00;1.00;;;;;19.22;36.74;98315.84;5003214;28;8942;-41
2021/05/21 11:35:59;;;;;;;;;1.00;1.00;;;;;19.26;36.69;98337.78;4983928;28;8914;-41
2021/05/21 11:38:25;;;;;;;;;1.00;1.00;;;;;19.22;37.01;98329.53;4984292;28;8881;-41
2021/05/21 11:40:51;;;;;;;;;1.00;1.00;;;;;19.21;36.86;98335.38;5000617;28;8779;-41